createdAt,value
2018-06-22T00:00:07.232Z,97879.30
2018-06-22T00:00:38.894Z,97881.01
2018-06-22T00:01:10.482Z,97874.17
2018-06-22T00:01:42.076Z,97879.30
2018-06-22T00:02:13.661Z,97879.75
2018-06-22T00:02:45.266Z,97881.03
2018-06-22T00:03:16.872Z,97883.17
2018-06-22T00:03:48.457Z,97877.18
2018-06-22T00:04:20.070Z,97881.87
2018-06-22T00:04:51.658Z,97878.86
2018-06-22T00:05:23.305Z,97883.14
2018-06-22T00:05:54.935Z,97882.72
2018-06-22T00:06:26.514Z,97878.44
2018-06-22T00:06:58.122Z,97881.85
2018-06-22T00:07:29.733Z,97878.91
2018-06-22T00:08:01.403Z,97886.56
2018-06-22T00:08:32.985Z,97883.25
2018-06-22T00:09:04.560Z,97881.89
2018-06-22T00:09:36.141Z,97882.31
2018-06-22T00:10:07.746Z,97883.59
2018-06-22T00:10:39.334Z,97881.47
2018-06-22T00:11:10.937Z,97887.47
2018-06-22T00:11:42.546Z,97887.03
2018-06-22T00:12:14.157Z,97887.89
2018-06-22T00:12:45.737Z,97884.88
2018-06-22T00:13:17.367Z,97884.44
2018-06-22T00:13:48.960Z,97887.45
2018-06-22T00:14:20.569Z,97885.72
2018-06-22T00:14:52.157Z,97886.59
2018-06-22T00:15:23.724Z,97884.86
2018-06-22T00:15:55.306Z,97884.02
2018-06-22T00:16:26.885Z,97883.59
2018-06-22T00:16:58.469Z,97891.30
2018-06-22T00:17:30.051Z,97890.02
2018-06-22T00:18:01.653Z,97883.59
2018-06-22T00:18:33.266Z,97880.61
2018-06-22T00:19:04.862Z,97886.19
2018-06-22T00:19:36.441Z,97883.62
2018-06-22T00:20:08.026Z,97878.53
2018-06-22T00:20:39.629Z,97891.28
2018-06-22T00:21:11.242Z,97877.95
2018-06-22T00:21:42.839Z,97880.08
2018-06-22T00:22:14.445Z,97886.05
2018-06-22T00:22:46.074Z,97880.50
2018-06-22T00:23:17.660Z,97880.92
2018-06-22T00:23:49.251Z,97880.50
2018-06-22T00:24:20.860Z,97883.06
2018-06-22T00:24:52.441Z,97883.09
2018-06-22T00:25:24.049Z,97884.37
2018-06-22T00:25:55.652Z,97883.50
2018-06-22T00:26:27.224Z,97878.38
2018-06-22T00:26:58.796Z,97880.13
2018-06-22T00:27:30.431Z,97884.37
2018-06-22T00:28:02.045Z,97887.85
2018-06-22T00:28:33.649Z,97883.14
2018-06-22T00:29:05.244Z,97887.85
2018-06-22T00:29:36.850Z,97889.55
2018-06-22T00:30:08.445Z,97884.42
2018-06-22T00:30:40.034Z,97881.85
2018-06-22T00:31:11.617Z,97883.56
2018-06-22T00:31:43.221Z,97882.27
2018-06-22T00:32:14.792Z,97881.85
2018-06-22T00:32:46.437Z,97885.72
2018-06-22T00:33:18.022Z,97884.02
2018-06-22T00:33:49.602Z,97887.42
2018-06-22T00:34:21.235Z,97884.44
2018-06-22T00:34:52.849Z,97890.42
2018-06-22T00:35:24.457Z,97881.45
2018-06-22T00:35:56.070Z,97880.59
2018-06-22T00:36:27.677Z,97888.27
2018-06-22T00:36:59.262Z,97884.86
2018-06-22T00:37:30.872Z,97888.72
2018-06-22T00:38:02.482Z,97892.13
2018-06-22T00:38:34.080Z,97888.72
2018-06-22T00:39:05.656Z,97891.28
2018-06-22T00:39:37.238Z,97890.44
2018-06-22T00:40:08.878Z,97894.29
2018-06-22T00:40:40.486Z,97896.00
2018-06-22T00:41:12.101Z,97893.87
2018-06-22T00:41:43.753Z,97894.29
2018-06-22T00:42:15.341Z,97894.31
2018-06-22T00:42:46.926Z,97892.21
2018-06-22T00:43:18.506Z,97891.74
2018-06-22T00:43:50.090Z,97893.02
2018-06-22T00:44:21.664Z,97898.58
2018-06-22T00:44:53.255Z,97894.31
2018-06-22T00:45:24.856Z,97890.45
2018-06-22T00:45:56.437Z,97896.44
2018-06-22T00:46:28.012Z,97896.44
2018-06-22T00:46:59.652Z,97898.14
2018-06-22T00:47:31.237Z,97896.87
2018-06-22T00:48:02.822Z,97897.72
2018-06-22T00:48:34.424Z,97902.43
2018-06-22T00:49:06.014Z,97900.73
2018-06-22T00:49:37.608Z,97900.30
2018-06-22T00:50:09.194Z,97894.36
2018-06-22T00:50:40.774Z,97896.92
2018-06-22T00:51:12.368Z,97903.34
2018-06-22T00:51:43.948Z,97904.63
2018-06-22T00:52:15.560Z,97903.78
2018-06-22T00:52:47.166Z,97899.94
2018-06-22T00:53:18.768Z,97902.50
2018-06-22T00:53:50.363Z,97902.48
2018-06-22T00:54:21.973Z,97900.81
2018-06-22T00:54:53.580Z,97905.44
2018-06-22T00:55:25.152Z,97905.91
2018-06-22T00:55:56.754Z,97905.91
2018-06-22T00:56:28.391Z,97901.20
2018-06-22T00:57:00.005Z,97904.16
2018-06-22T00:57:31.657Z,97906.72
2018-06-22T00:58:03.242Z,97905.95
2018-06-22T00:58:34.831Z,97911.48
2018-06-22T00:59:06.441Z,97911.91
2018-06-22T00:59:38.049Z,97907.64
2018-06-22T01:00:09.619Z,97904.20
2018-06-22T01:00:41.196Z,97907.64
2018-06-22T01:01:12.777Z,97907.20
2018-06-22T01:01:44.381Z,97905.94
2018-06-22T01:02:15.996Z,97912.70
2018-06-22T01:02:47.574Z,97903.72
2018-06-22T01:03:19.181Z,97908.42
2018-06-22T01:03:50.790Z,97909.27
2018-06-22T01:04:22.373Z,97904.13
2018-06-22T01:04:53.944Z,97905.86
2018-06-22T01:05:25.516Z,97904.98
2018-06-22T01:05:57.141Z,97904.13
2018-06-22T01:06:28.741Z,97905.84
2018-06-22T01:07:00.389Z,97899.49
2018-06-22T01:07:31.983Z,97905.82
2018-06-22T01:08:03.589Z,97906.69
2018-06-22T01:08:35.197Z,97901.55
2018-06-22T01:09:06.786Z,97902.39
2018-06-22T01:09:38.369Z,97903.58
2018-06-22T01:10:09.953Z,97904.45
2018-06-22T01:10:41.526Z,97903.94
2018-06-22T01:11:13.169Z,97906.08
2018-06-22T01:11:44.857Z,97907.36
2018-06-22T01:12:16.501Z,97912.13
2018-06-22T01:12:48.105Z,97906.94
2018-06-22T01:13:19.699Z,97908.28
2018-06-22T01:13:51.338Z,97911.28
2018-06-22T01:14:22.908Z,97912.56
2018-06-22T01:14:54.479Z,97908.30
2018-06-22T01:15:26.081Z,97904.02
2018-06-22T01:15:57.698Z,97905.73
2018-06-22T01:16:29.276Z,97908.31
2018-06-22T01:17:00.877Z,97906.59
2018-06-22T01:17:32.465Z,97905.31
2018-06-22T01:18:04.060Z,97899.75
2018-06-22T01:18:35.745Z,97904.91
2018-06-22T01:19:07.393Z,97904.05
2018-06-22T01:19:38.989Z,97901.05
2018-06-22T01:20:10.574Z,97901.95
2018-06-22T01:20:42.158Z,97901.53
2018-06-22T01:21:13.752Z,97902.81
2018-06-22T01:21:45.323Z,97898.54
2018-06-22T01:22:16.942Z,97902.39
2018-06-22T01:22:48.566Z,97897.70
2018-06-22T01:23:20.162Z,97901.57
2018-06-22T01:23:51.750Z,97901.11
2018-06-22T01:24:23.376Z,97901.12
2018-06-22T01:24:54.982Z,97899.84
2018-06-22T01:25:26.566Z,97905.82
2018-06-22T01:25:58.146Z,97905.33
2018-06-22T01:26:29.730Z,97902.28
2018-06-22T01:27:01.338Z,97903.91
2018-06-22T01:27:32.954Z,97905.20
2018-06-22T01:28:04.538Z,97901.00
2018-06-22T01:28:36.165Z,97907.41
2018-06-22T01:29:07.745Z,97908.94
2018-06-22T01:29:39.348Z,97904.86
2018-06-22T01:30:10.926Z,97913.91
2018-06-22T01:30:42.506Z,97914.52
2018-06-22T01:31:14.076Z,97911.69
2018-06-22T01:31:45.662Z,97917.28
2018-06-22T01:32:17.246Z,97913.10
2018-06-22T01:32:48.847Z,97910.57
2018-06-22T01:33:20.433Z,97916.64
2018-06-22T01:33:52.078Z,97917.05
2018-06-22T01:34:23.765Z,97917.08
2018-06-22T01:34:55.378Z,97922.70
2018-06-22T01:35:26.976Z,97919.72
2018-06-22T01:35:58.581Z,97916.73
2018-06-22T01:36:30.198Z,97917.66
2018-06-22T01:37:01.797Z,97925.79
2018-06-22T01:37:33.422Z,97921.53
2018-06-22T01:38:05.009Z,97918.20
2018-06-22T01:38:36.613Z,97918.98
2018-06-22T01:39:08.242Z,97920.69
2018-06-22T01:39:39.844Z,97913.01
2018-06-22T01:40:11.433Z,97914.27
2018-06-22T01:40:43.004Z,97918.55
2018-06-22T01:41:14.629Z,97916.84
2018-06-22T01:41:46.228Z,97913.85
2018-06-22T01:42:17.837Z,97916.42
2018-06-22T01:42:49.446Z,97916.86
2018-06-22T01:43:21.097Z,97915.16
2018-06-22T01:43:52.686Z,97911.30
2018-06-22T01:44:24.357Z,97914.34
2018-06-22T01:44:55.937Z,97911.78
2018-06-22T01:45:27.546Z,97907.97
2018-06-22T01:45:59.157Z,97912.59
2018-06-22T01:46:30.765Z,97912.15
2018-06-22T01:47:02.360Z,97911.28
2018-06-22T01:47:33.965Z,97911.38
2018-06-22T01:48:05.618Z,97912.64
2018-06-22T01:48:37.224Z,97907.50
2018-06-22T01:49:08.861Z,97916.06
2018-06-22T01:49:40.473Z,97912.26
2018-06-22T01:50:12.067Z,97917.80
2018-06-22T01:50:43.674Z,97910.53
2018-06-22T01:51:15.281Z,97913.15
2018-06-22T01:51:46.893Z,97912.73
2018-06-22T01:52:18.478Z,97909.74
2018-06-22T01:52:50.081Z,97916.58
2018-06-22T01:53:22.723Z,97916.17
2018-06-22T01:53:54.313Z,97921.31
2018-06-22T01:54:25.917Z,97917.04
2018-06-22T01:54:57.510Z,97913.70
2018-06-22T01:55:29.081Z,97920.09
2018-06-22T01:56:00.689Z,97918.39
2018-06-22T01:56:32.264Z,97923.10
2018-06-22T01:57:03.914Z,97917.55
2018-06-22T01:57:35.512Z,97921.42
2018-06-22T01:58:07.169Z,97921.44
2018-06-22T01:58:38.763Z,97925.27
2018-06-22T01:59:10.381Z,97923.53
2018-06-22T01:59:41.951Z,97921.42
2018-06-22T02:00:13.543Z,97925.67
2018-06-22T02:00:45.137Z,97922.26
2018-06-22T02:01:16.733Z,97923.10
2018-06-22T02:01:48.309Z,97923.97
2018-06-22T02:02:19.963Z,97929.10
2018-06-22T02:02:51.541Z,97925.69
2018-06-22T02:03:23.190Z,97922.70
2018-06-22T02:03:54.781Z,97928.25
2018-06-22T02:04:26.376Z,97923.10
2018-06-22T02:04:57.987Z,97926.95
2018-06-22T02:05:29.596Z,97921.38
2018-06-22T02:06:01.296Z,97921.82
2018-06-22T02:06:32.882Z,97922.66
2018-06-22T02:07:04.465Z,97922.24
2018-06-22T02:07:36.060Z,97920.54
2018-06-22T02:08:07.627Z,97922.26
2018-06-22T02:08:39.425Z,97923.13
2018-06-22T02:09:10.996Z,97924.41
2018-06-22T02:09:42.601Z,97919.30
2018-06-22T02:10:14.195Z,97920.63
2018-06-22T02:10:45.811Z,97919.73
2018-06-22T02:11:17.407Z,97918.94
2018-06-22T02:11:49.012Z,97919.78
2018-06-22T02:12:20.617Z,97918.08
2018-06-22T02:12:52.206Z,97926.15
2018-06-22T02:13:23.808Z,97923.58
2018-06-22T02:13:55.446Z,97923.58
2018-06-22T02:14:27.020Z,97924.05
2018-06-22T02:14:58.621Z,97929.14
2018-06-22T02:15:30.230Z,97925.34
2018-06-22T02:16:01.836Z,97925.34
2018-06-22T02:16:33.432Z,97932.56
2018-06-22T02:17:05.027Z,97926.99
2018-06-22T02:17:36.596Z,97936.40
2018-06-22T02:18:08.187Z,97933.83
2018-06-22T02:18:39.769Z,97929.56
2018-06-22T02:19:11.413Z,97933.41
2018-06-22T02:19:42.987Z,97930.91
2018-06-22T02:20:14.589Z,97926.13
2018-06-22T02:20:46.178Z,97927.41
2018-06-22T02:21:17.757Z,97925.27
2018-06-22T02:21:49.362Z,97926.57
2018-06-22T02:22:20.988Z,97927.86
2018-06-22T02:22:52.565Z,97929.56
2018-06-22T02:23:24.165Z,97930.47
2018-06-22T02:23:55.772Z,97927.05
2018-06-22T02:24:27.362Z,97925.34
2018-06-22T02:24:58.966Z,97926.64
2018-06-22T02:25:30.573Z,97925.38
2018-06-22T02:26:02.153Z,97927.50
2018-06-22T02:26:33.757Z,97930.91
2018-06-22T02:27:05.368Z,97925.76
2018-06-22T02:27:37.003Z,97929.63
2018-06-22T02:28:08.579Z,97928.34
2018-06-22T02:28:40.161Z,97932.22
2018-06-22T02:29:11.739Z,97928.36
2018-06-22T02:29:43.341Z,97932.64
2018-06-22T02:30:14.958Z,97927.99
2018-06-22T02:30:46.617Z,97926.73
2018-06-22T02:31:18.224Z,97935.29
2018-06-22T02:31:49.852Z,97931.02
2018-06-22T02:32:21.468Z,97935.33
2018-06-22T02:32:53.054Z,97930.66
2018-06-22T02:33:24.624Z,97923.05
2018-06-22T02:33:56.229Z,97935.38
2018-06-22T02:34:27.823Z,97930.69
2018-06-22T02:34:59.429Z,97932.87
2018-06-22T02:35:31.043Z,97922.98
2018-06-22T02:36:02.636Z,97929.39
2018-06-22T02:36:34.248Z,97929.39
2018-06-22T02:37:05.843Z,97928.11
2018-06-22T02:37:37.454Z,97923.83
2018-06-22T02:38:09.092Z,97921.69
2018-06-22T02:38:40.668Z,97929.39
2018-06-22T02:39:12.240Z,97926.40
2018-06-22T02:39:43.818Z,97922.55
2018-06-22T02:40:15.389Z,97923.39
2018-06-22T02:40:46.973Z,97928.86
2018-06-22T02:41:18.565Z,97927.98
2018-06-22T02:41:50.136Z,97921.46
2018-06-22T02:42:21.749Z,97926.47
2018-06-22T02:42:53.410Z,97932.41
2018-06-22T02:43:25.030Z,97934.03
2018-06-22T02:43:56.615Z,97926.26
2018-06-22T02:44:28.207Z,97934.22
2018-06-22T02:44:59.780Z,97928.79
2018-06-22T02:45:31.395Z,97925.85
2018-06-22T02:46:02.990Z,97932.09
2018-06-22T02:46:34.588Z,97925.63
2018-06-22T02:47:06.174Z,97923.31
2018-06-22T02:47:37.758Z,97920.13
2018-06-22T02:48:09.538Z,97924.20
2018-06-22T02:48:41.141Z,97929.46
2018-06-22T02:49:12.722Z,97920.20
2018-06-22T02:49:44.329Z,97921.14
2018-06-22T02:50:15.923Z,97919.08
2018-06-22T02:50:47.510Z,97925.09
2018-06-22T02:51:19.076Z,97918.80
2018-06-22T02:51:50.658Z,97923.88
2018-06-22T02:52:22.238Z,97924.05
2018-06-22T02:52:53.841Z,97920.98
2018-06-22T02:53:25.489Z,97923.84
2018-06-22T02:53:57.095Z,97925.45
2018-06-22T02:54:28.711Z,97920.78
2018-06-22T02:55:00.283Z,97926.88
2018-06-22T02:55:31.890Z,97920.63
2018-06-22T02:56:03.489Z,97917.38
2018-06-22T02:56:35.138Z,97921.41
2018-06-22T02:57:06.719Z,97919.02
2018-06-22T02:57:38.314Z,97913.28
2018-06-22T02:58:09.938Z,97914.86
2018-06-22T02:58:41.566Z,97915.54
2018-06-22T02:59:13.156Z,97923.18
2018-06-22T02:59:44.816Z,97914.97
2018-06-22T03:00:16.374Z,97919.52
2018-06-22T03:00:47.972Z,97920.30
2018-06-22T03:01:19.562Z,97915.56
2018-06-22T03:01:51.150Z,97917.20
2018-06-22T03:02:22.756Z,97913.36
2018-06-22T03:02:54.362Z,97913.76
2018-06-22T03:03:25.940Z,97917.98
2018-06-22T03:03:57.564Z,97915.04
2018-06-22T03:04:29.149Z,97916.27
2018-06-22T03:05:00.758Z,97912.01
2018-06-22T03:05:32.356Z,97908.16
2018-06-22T03:06:03.983Z,97911.59
2018-06-22T03:06:35.562Z,97911.20
2018-06-22T03:07:07.156Z,97909.87
2018-06-22T03:07:38.742Z,97912.01
2018-06-22T03:08:10.325Z,97907.73
2018-06-22T03:08:41.940Z,97909.45
2018-06-22T03:09:13.546Z,97909.02
2018-06-22T03:09:45.161Z,97909.87
2018-06-22T03:10:16.740Z,97901.75
2018-06-22T03:10:48.317Z,97906.02
2018-06-22T03:11:19.926Z,97903.95
2018-06-22T03:11:51.533Z,97903.88
2018-06-22T03:12:23.158Z,97901.31
2018-06-22T03:12:54.762Z,97906.02
2018-06-22T03:13:26.386Z,97910.28
2018-06-22T03:13:57.989Z,97907.73
2018-06-22T03:14:29.573Z,97905.18
2018-06-22T03:15:01.148Z,97910.77
2018-06-22T03:15:32.802Z,97903.95
2018-06-22T03:16:04.394Z,97909.49
2018-06-22T03:16:35.977Z,97909.07
2018-06-22T03:17:07.565Z,97905.65
2018-06-22T03:17:39.186Z,97911.22
2018-06-22T03:18:10.784Z,97908.23
2018-06-22T03:18:42.424Z,97900.11
2018-06-22T03:19:14.024Z,97904.38
2018-06-22T03:19:45.619Z,97901.82
2018-06-22T03:20:17.211Z,97902.26
2018-06-22T03:20:48.822Z,97903.96
2018-06-22T03:21:20.426Z,97906.95
2018-06-22T03:21:52.022Z,97906.54
2018-06-22T03:22:23.641Z,97900.11
2018-06-22T03:22:55.226Z,97907.38
2018-06-22T03:23:26.807Z,97903.96
2018-06-22T03:23:58.389Z,97904.40
2018-06-22T03:24:29.969Z,97906.10
2018-06-22T03:25:01.561Z,97897.98
2018-06-22T03:25:33.160Z,97902.27
2018-06-22T03:26:04.765Z,97903.55
2018-06-22T03:26:36.410Z,97905.70
2018-06-22T03:27:07.990Z,97901.46
2018-06-22T03:27:39.559Z,97905.31
2018-06-22T03:28:11.195Z,97908.73
2018-06-22T03:28:42.802Z,97906.61
2018-06-22T03:29:14.379Z,97910.03
2018-06-22T03:29:45.981Z,97902.77
2018-06-22T03:30:17.587Z,97907.05
2018-06-22T03:30:49.177Z,97911.75
2018-06-22T03:31:20.791Z,97907.91
2018-06-22T03:31:52.464Z,97905.77
2018-06-22T03:32:24.074Z,97906.20
2018-06-22T03:32:55.657Z,97903.64
2018-06-22T03:33:27.242Z,97907.06
2018-06-22T03:33:58.831Z,97910.47
2018-06-22T03:34:30.418Z,97912.19
2018-06-22T03:35:02.088Z,97904.06
2018-06-22T03:35:33.686Z,97899.80
2018-06-22T03:36:05.304Z,97909.19
2018-06-22T03:36:36.872Z,97906.25
2018-06-22T03:37:08.517Z,97902.42
2018-06-22T03:37:40.107Z,97903.69
2018-06-22T03:38:11.680Z,97903.69
2018-06-22T03:38:43.307Z,97898.58
2018-06-22T03:39:14.927Z,97904.98
2018-06-22T03:39:46.569Z,97903.28
2018-06-22T03:40:18.416Z,97905.41
2018-06-22T03:40:50.225Z,97902.84
2018-06-22T03:41:22.001Z,97903.72
2018-06-22T03:41:53.626Z,97907.98
2018-06-22T03:42:25.214Z,97907.13
2018-06-22T03:42:56.812Z,97907.13
2018-06-22T03:43:28.441Z,97905.00
2018-06-22T03:44:00.061Z,97901.16
2018-06-22T03:44:31.653Z,97902.02
2018-06-22T03:45:03.368Z,97910.14
2018-06-22T03:45:34.992Z,97905.50
2018-06-22T03:46:06.681Z,97907.14
2018-06-22T03:46:38.314Z,97904.20
2018-06-22T03:47:09.959Z,97906.72
2018-06-22T03:47:41.582Z,97904.16
2018-06-22T03:48:13.172Z,97910.61
2018-06-22T03:48:44.768Z,97906.77
2018-06-22T03:49:16.377Z,97905.16
2018-06-22T03:49:47.962Z,97904.22
2018-06-22T03:50:19.532Z,97905.92
2018-06-22T03:50:51.138Z,97905.06
2018-06-22T03:51:22.785Z,97902.94
2018-06-22T03:51:54.373Z,97908.08
2018-06-22T03:52:26.014Z,97908.08
2018-06-22T03:52:57.617Z,97906.81
2018-06-22T03:53:29.211Z,97911.08
2018-06-22T03:54:00.784Z,97902.16
2018-06-22T03:54:32.369Z,97909.38
2018-06-22T03:55:03.953Z,97906.81
2018-06-22T03:55:35.552Z,97910.22
2018-06-22T03:56:07.140Z,97909.80
2018-06-22T03:56:38.743Z,97909.84
2018-06-22T03:57:10.325Z,97904.31
2018-06-22T03:57:41.921Z,97903.39
2018-06-22T03:58:13.533Z,97902.97
2018-06-22T03:58:45.158Z,97903.88
2018-06-22T03:59:16.790Z,97905.09
2018-06-22T03:59:48.375Z,97915.34
2018-06-22T04:00:19.974Z,97906.38
2018-06-22T04:00:51.569Z,97902.95
2018-06-22T04:01:23.182Z,97893.05
2018-06-22T04:01:54.782Z,97906.36
2018-06-22T04:02:26.386Z,97901.59
2018-06-22T04:02:57.969Z,97907.97
2018-06-22T04:03:29.577Z,97902.33
2018-06-22T04:04:01.234Z,97904.78
2018-06-22T04:04:32.831Z,97900.02
2018-06-22T04:05:04.437Z,97900.44
2018-06-22T04:05:36.062Z,97901.62
2018-06-22T04:06:07.649Z,97894.73
2018-06-22T04:06:39.240Z,97901.09
2018-06-22T04:07:10.813Z,97898.08
2018-06-22T04:07:42.410Z,97896.70
2018-06-22T04:08:14.106Z,97900.91
2018-06-22T04:08:45.686Z,97897.46
2018-06-22T04:09:17.305Z,97898.29
2018-06-22T04:09:48.908Z,97895.30
2018-06-22T04:10:20.507Z,97893.92
2018-06-22T04:10:52.094Z,97898.58
2018-06-22T04:11:23.713Z,97881.74
2018-06-22T04:11:55.305Z,97895.47
2018-06-22T04:12:26.880Z,97900.95
2018-06-22T04:12:58.485Z,97900.50
2018-06-22T04:13:30.145Z,97897.02
2018-06-22T04:14:01.746Z,97902.55
2018-06-22T04:14:33.329Z,97899.03
2018-06-22T04:15:04.918Z,97898.95
2018-06-22T04:15:36.501Z,97901.43
2018-06-22T04:16:08.121Z,97896.64
2018-06-22T04:16:39.704Z,97899.09
2018-06-22T04:17:11.298Z,97900.69
2018-06-22T04:17:42.878Z,97893.66
2018-06-22T04:18:14.477Z,97894.24
2018-06-22T04:18:46.081Z,97901.98
2018-06-22T04:19:17.680Z,97896.88
2018-06-22T04:19:49.293Z,97904.76
2018-06-22T04:20:20.913Z,97903.58
2018-06-22T04:20:52.508Z,97905.31
2018-06-22T04:21:24.165Z,97898.00
2018-06-22T04:21:56.382Z,97903.73
2018-06-22T04:22:27.981Z,97903.47
2018-06-22T04:22:59.580Z,97902.11
2018-06-22T04:23:31.151Z,97897.89
2018-06-22T04:24:02.738Z,97893.80
2018-06-22T04:24:34.329Z,97895.77
2018-06-22T04:25:05.925Z,97896.95
2018-06-22T04:25:37.524Z,97903.81
2018-06-22T04:26:09.111Z,97897.20
2018-06-22T04:26:40.748Z,97896.46
2018-06-22T04:27:12.342Z,97897.20
2018-06-22T04:27:43.954Z,97898.96
2018-06-22T04:28:15.528Z,97898.77
2018-06-22T04:28:47.133Z,97901.43
2018-06-22T04:29:18.747Z,97898.77
2018-06-22T04:29:50.334Z,97902.38
2018-06-22T04:30:21.948Z,97902.53
2018-06-22T04:30:53.541Z,97861.38
2018-06-22T04:31:25.120Z,97900.49
2018-06-22T04:31:56.789Z,97893.17
2018-06-22T04:32:28.425Z,97898.07
2018-06-22T04:33:00.000Z,97892.00
2018-06-22T04:33:31.591Z,97902.83
2018-06-22T04:34:03.188Z,97900.05
2018-06-22T04:34:34.777Z,97889.08
2018-06-22T04:35:06.377Z,97906.00
2018-06-22T04:35:37.962Z,97895.63
2018-06-22T04:36:09.565Z,97894.07
2018-06-22T04:36:41.157Z,97897.86
2018-06-22T04:37:12.786Z,97892.64
2018-06-22T04:37:44.393Z,97894.91
2018-06-22T04:38:16.004Z,97888.66
2018-06-22T04:38:47.686Z,97898.94
2018-06-22T04:39:19.206Z,97894.22
2018-06-22T04:39:50.790Z,97892.69
2018-06-22T04:40:22.392Z,97896.42
2018-06-22T04:40:54.010Z,97892.94
2018-06-22T04:41:25.622Z,97895.15
2018-06-22T04:41:57.229Z,97891.45
2018-06-22T04:42:28.851Z,97885.97
2018-06-22T04:43:00.432Z,97888.69
2018-06-22T04:43:32.004Z,97888.27
2018-06-22T04:44:03.632Z,97889.72
2018-06-22T04:44:35.246Z,97894.62
2018-06-22T04:45:06.820Z,97888.02
2018-06-22T04:45:38.415Z,97883.55
2018-06-22T04:46:10.007Z,97887.14
2018-06-22T04:46:41.592Z,97885.05
2018-06-22T04:47:13.173Z,97890.52
2018-06-22T04:47:44.801Z,97891.25
2018-06-22T04:48:16.458Z,97890.37
2018-06-22T04:48:48.042Z,97887.22
2018-06-22T04:49:19.654Z,97890.98
2018-06-22T04:49:51.272Z,97890.37
2018-06-22T04:50:22.884Z,97888.70
2018-06-22T04:50:54.537Z,97888.98
2018-06-22T04:51:26.147Z,97886.80
2018-06-22T04:51:57.737Z,97892.11
2018-06-22T04:52:29.334Z,97890.27
2018-06-22T04:53:00.918Z,97894.85
2018-06-22T04:53:32.530Z,97892.69
2018-06-22T04:54:04.142Z,97898.02
2018-06-22T04:54:35.716Z,97899.44
2018-06-22T04:55:07.293Z,97894.38
2018-06-22T04:55:38.904Z,97890.94
2018-06-22T04:56:10.533Z,97900.62
2018-06-22T04:56:42.134Z,97896.95
2018-06-22T04:57:13.746Z,97902.19
2018-06-22T04:57:45.315Z,97896.79
2018-06-22T04:58:16.892Z,97895.22
2018-06-22T04:58:48.557Z,97899.23
2018-06-22T04:59:20.142Z,97901.56
2018-06-22T04:59:51.725Z,97900.44
2018-06-22T05:00:23.378Z,97912.06
2018-06-22T05:00:54.993Z,97897.22
2018-06-22T05:01:26.578Z,97897.27
2018-06-22T05:01:58.181Z,97901.62
2018-06-22T05:02:29.760Z,97901.66
2018-06-22T05:03:01.361Z,97908.12
2018-06-22T05:03:33.020Z,97907.27
2018-06-22T05:04:04.596Z,97898.22
2018-06-22T05:04:36.168Z,97905.66
2018-06-22T05:05:07.769Z,97903.42
2018-06-22T05:05:39.429Z,97910.27
2018-06-22T05:06:11.008Z,97907.73
2018-06-22T05:06:42.608Z,97888.13
2018-06-22T05:07:14.285Z,97908.84
2018-06-22T05:07:45.869Z,97903.28
2018-06-22T05:08:17.444Z,97902.89
2018-06-22T05:08:49.016Z,97900.80
2018-06-22T05:09:20.623Z,97901.81
2018-06-22T05:09:52.243Z,97901.05
2018-06-22T05:10:23.825Z,97902.81
2018-06-22T05:10:55.445Z,97906.69
2018-06-22T05:11:27.036Z,97907.63
2018-06-22T05:11:58.622Z,97908.11
2018-06-22T05:12:30.265Z,97905.98
2018-06-22T05:13:01.874Z,97914.98
2018-06-22T05:13:33.444Z,97911.59
2018-06-22T05:14:05.035Z,97917.18
2018-06-22T05:14:36.621Z,97915.07
2018-06-22T05:15:08.190Z,97912.09
2018-06-22T05:15:39.830Z,97920.69
2018-06-22T05:16:11.394Z,97918.14
2018-06-22T05:16:43.001Z,97921.63
2018-06-22T05:17:14.649Z,97922.06
2018-06-22T05:17:46.217Z,97914.39
2018-06-22T05:18:17.837Z,97911.41
2018-06-22T05:18:49.445Z,97911.89
2018-06-22T05:19:21.029Z,97914.45
2018-06-22T05:19:52.624Z,97911.05
2018-06-22T05:20:24.210Z,97911.48
2018-06-22T05:20:55.820Z,97917.91
2018-06-22T05:21:27.432Z,97920.47
2018-06-22T05:21:59.174Z,97912.80
2018-06-22T05:22:30.992Z,97906.81
2018-06-22T05:23:02.581Z,97922.23
2018-06-22T05:23:38.662Z,97919.20
2018-06-22T05:24:10.269Z,97917.12
2018-06-22T05:24:41.879Z,97906.03
2018-06-22T05:25:13.466Z,97915.02
2018-06-22T05:25:45.038Z,97914.58
2018-06-22T05:26:16.718Z,97900.92
2018-06-22T05:26:48.305Z,97907.38
2018-06-22T05:27:26.273Z,97902.70
2018-06-22T05:27:58.116Z,97902.27
2018-06-22T05:28:40.221Z,97908.67
2018-06-22T05:29:12.355Z,97900.15
2018-06-22T05:29:44.094Z,97904.85
2018-06-22T05:30:15.760Z,97908.26
2018-06-22T05:30:47.313Z,97903.14
2018-06-22T05:31:18.968Z,97904.43
2018-06-22T05:31:50.551Z,97912.95
2018-06-22T05:32:22.684Z,97904.85
2018-06-22T05:32:54.309Z,97907.85
2018-06-22T05:33:25.881Z,97912.95
2018-06-22T05:33:57.469Z,97912.53
2018-06-22T05:34:29.078Z,97913.45
2018-06-22T05:35:00.999Z,97913.46
2018-06-22T05:35:34.172Z,97915.59
2018-06-22T05:36:06.419Z,97912.62
2018-06-22T05:36:38.475Z,97914.30
2018-06-22T05:37:10.545Z,97917.32
2018-06-22T05:37:43.720Z,97912.20
2018-06-22T05:38:15.345Z,97912.60
2018-06-22T05:38:47.018Z,97907.93
2018-06-22T05:39:18.610Z,97909.63
2018-06-22T05:39:50.223Z,97913.91
2018-06-22T05:40:23.141Z,97905.81
2018-06-22T05:40:55.494Z,97901.96
2018-06-22T05:41:27.730Z,97900.68
2018-06-22T05:42:00.563Z,97899.41
2018-06-22T05:42:32.195Z,97903.23
2018-06-22T05:43:05.039Z,97900.24
2018-06-22T05:43:37.682Z,97907.51
2018-06-22T05:44:09.283Z,97899.82
2018-06-22T05:44:42.173Z,97904.52
2018-06-22T05:45:13.967Z,97909.26
2018-06-22T05:45:45.566Z,97905.41
2018-06-22T05:46:17.643Z,97909.65
2018-06-22T05:46:49.285Z,97907.13
2018-06-22T05:47:20.898Z,97906.70
2018-06-22T05:47:52.482Z,97904.15
2018-06-22T05:48:24.068Z,97907.99
2018-06-22T05:48:55.728Z,97917.40
2018-06-22T05:49:27.587Z,97914.00
2018-06-22T05:49:59.206Z,97911.01
2018-06-22T05:50:33.250Z,97909.30
2018-06-22T05:51:05.205Z,97911.88
2018-06-22T05:51:37.240Z,97911.91
2018-06-22T05:52:09.049Z,97904.69
2018-06-22T05:52:40.703Z,97907.22
2018-06-22T05:53:12.324Z,97917.00
2018-06-22T05:53:43.929Z,97912.78
2018-06-22T05:54:15.870Z,97914.48
2018-06-22T05:54:49.248Z,97915.77
2018-06-22T05:55:31.104Z,97908.09
2018-06-22T05:56:02.687Z,97910.66
2018-06-22T05:56:35.022Z,97911.48
2018-06-22T05:57:06.654Z,97911.48
2018-06-22T05:57:38.440Z,97917.05
2018-06-22T05:58:10.024Z,97917.46
2018-06-22T05:58:41.650Z,97913.15
2018-06-22T05:59:13.293Z,97916.55
2018-06-22T05:59:44.902Z,97904.44
2018-06-22T06:00:16.504Z,97921.26
2018-06-22T06:00:48.114Z,97914.00
2018-06-22T06:01:19.692Z,97914.41
2018-06-22T06:01:51.502Z,97914.84
2018-06-22T06:02:23.096Z,97914.05
2018-06-22T06:02:54.672Z,97915.32
2018-06-22T06:03:26.298Z,97917.41
2018-06-22T06:03:57.871Z,97919.60
2018-06-22T06:04:37.594Z,97916.18
2018-06-22T06:05:09.789Z,97913.20
2018-06-22T06:05:41.365Z,97888.09
2018-06-22T06:06:12.956Z,97916.64
2018-06-22T06:06:44.542Z,97904.69
2018-06-22T06:07:16.176Z,97910.66
2018-06-22T06:07:47.767Z,97906.41
2018-06-22T06:08:19.377Z,97906.41
2018-06-22T06:08:50.986Z,97911.53
2018-06-22T06:09:23.841Z,97909.02
2018-06-22T06:09:55.653Z,97912.39
2018-06-22T06:10:27.246Z,97915.42
2018-06-22T06:10:58.880Z,97910.30
2018-06-22T06:11:30.466Z,97909.83
2018-06-22T06:12:02.096Z,97920.12